Time;durP1;ratioP1;P1;durP2;ratioP2;P2;SDS_P1;SDS_P2;PMS_P1;PMS_P2;Temp;Humidity;BMP_temperature;BMP_pressure;BME280_temperature;BME280_humidity;BME280_pressure;Samples;Min_cycle;Max_cycle;Signal;HPM_P1;HPM_P2
2021/03/16 00:00:14;;;;;;;7.37;2.80;;;5.30;51.90;;;;;;5094760;28;39370;-81
2021/03/16 00:03:00;;;;;;;3.20;2.27;;;5.40;51.90;;;;;;5098052;28;39082;-83
2021/03/16 00:05:32;;;;;;;5.13;2.53;;;5.40;52.40;;;;;;5102324;28;36052;-81
2021/03/16 00:08:00;;;;;;;4.93;2.17;;;5.40;51.60;;;;;;5123742;28;38114;-82
2021/03/16 00:10:28;;;;;;;5.60;2.70;;;5.40;51.40;;;;;;5103567;28;38070;-83
2021/03/16 00:12:55;;;;;;;4.80;2.40;;;5.30;51.50;;;;;;5096720;28;38717;-82
2021/03/16 00:15:22;;;;;;;7.00;2.77;;;5.30;51.40;;;;;;5096983;28;38454;-82
2021/03/16 00:17:49;;;;;;;4.93;2.43;;;5.30;51.40;;;;;;5088417;28;40499;-82
2021/03/16 00:20:19;;;;;;;3.70;2.37;;;5.30;51.60;;;;;;5090406;28;38088;-82
2021/03/16 00:22:46;;;;;;;4.53;2.20;;;5.30;51.40;;;;;;5089823;28;36547;-82
2021/03/16 00:25:15;;;;;;;4.00;2.23;;;5.30;50.90;;;;;;5094861;28;37657;-82
2021/03/16 00:31:27;;;;;;;5.33;2.27;;;5.30;50.60;;;;;;5083321;28;40983;-82
2021/03/16 00:33:55;;;;;;;4.00;2.20;;;5.30;50.70;;;;;;5077042;28;37241;-80
2021/03/16 00:36:23;;;;;;;6.40;2.30;;;5.30;51.30;;;;;;5081496;28;38038;-80
2021/03/16 00:38:50;;;;;;;5.50;2.43;;;5.30;50.40;;;;;;5086278;28;39693;-78
2021/03/16 00:41:18;;;;;;;5.93;2.33;;;5.30;50.50;;;;;;5088085;28;39525;-80
2021/03/16 00:43:46;;;;;;;4.10;2.10;;;5.20;50.50;;;;;;5095438;28;36749;-81
2021/03/16 00:46:13;;;;;;;5.13;1.80;;;5.30;50.60;;;;;;5086355;28;37871;-81
2021/03/16 00:48:40;;;;;;;3.50;1.60;;;5.20;50.40;;;;;;5085341;28;38878;-81
2021/03/16 00:51:07;;;;;;;7.33;2.30;;;5.30;50.60;;;;;;5100520;28;37899;-81
2021/03/16 00:53:35;;;;;;;3.07;1.80;;;5.30;50.80;;;;;;5091384;28;36234;-81
2021/03/16 00:56:07;;;;;;;4.30;2.03;;;5.20;50.70;;;;;;5109419;28;35941;-81
2021/03/16 00:58:35;;;;;;;5.07;2.40;;;5.20;50.90;;;;;;5107405;28;38581;-80
2021/03/16 01:01:05;;;;;;;5.10;1.97;;;5.10;50.90;;;;;;5092441;28;38751;-82
2021/03/16 01:03:33;;;;;;;3.60;2.23;;;5.10;50.90;;;;;;5088832;28;37329;-81
2021/03/16 01:06:00;;;;;;;5.03;2.00;;;5.20;50.70;;;;;;5088350;28;36895;-81
2021/03/16 01:08:27;;;;;;;5.67;1.87;;;5.20;51.00;;;;;;5090676;28;39436;-80
2021/03/16 01:10:55;;;;;;;5.23;2.20;;;5.20;50.90;;;;;;5094748;28;37722;-82
2021/03/16 01:13:24;;;;;;;3.63;2.27;;;5.20;51.00;;;;;;5091959;28;36568;-81
2021/03/16 01:15:52;;;;;;;9.40;2.33;;;5.20;51.00;;;;;;5123026;27;36005;-80
2021/03/16 01:18:21;;;;;;;5.43;2.10;;;5.20;51.00;;;;;;5086341;28;40409;-80
2021/03/16 01:20:51;;;;;;;5.20;2.73;;;5.30;51.20;;;;;;5091427;28;38787;-81
2021/03/16 01:23:18;;;;;;;3.60;2.00;;;5.30;51.20;;;;;;5087344;28;37389;-81
2021/03/16 01:25:45;;;;;;;4.80;2.17;;;5.30;51.60;;;;;;5089089;28;37044;-81
2021/03/16 01:28:12;;;;;;;3.10;1.67;;;5.30;51.00;;;;;;5087517;28;38360;-80
2021/03/16 01:30:39;;;;;;;3.20;2.13;;;5.30;51.00;;;;;;5091255;28;37678;-80
2021/03/16 01:33:06;;;;;;;4.20;2.10;;;5.20;51.00;;;;;;5097451;28;38207;-80
2021/03/16 01:35:33;;;;;;;2.13;1.93;;;5.20;50.80;;;;;;5097180;28;37801;-79
2021/03/16 01:38:01;;;;;;;5.93;2.27;;;5.30;50.40;;;;;;5097265;28;39118;-80
2021/03/16 01:40:32;;;;;;;5.07;2.00;;;5.30;50.40;;;;;;5107863;28;39775;-82
2021/03/16 01:43:08;;;;;;;6.37;1.67;;;5.30;50.40;;;;;;5088964;28;38548;-79
2021/03/16 01:45:38;;;;;;;4.10;1.67;;;5.30;50.00;;;;;;5091883;28;36994;-80
2021/03/16 01:48:07;;;;;;;5.17;1.83;;;5.40;49.80;;;;;;5088468;28;39274;-82
2021/03/16 01:50:35;;;;;;;2.97;1.60;;;5.30;49.40;;;;;;5085600;28;39566;-82
2021/03/16 01:53:03;;;;;;;5.80;1.97;;;5.40;49.10;;;;;;5094895;28;37532;-81
2021/03/16 01:55:30;;;;;;;2.40;1.50;;;5.50;48.80;;;;;;5090979;28;36824;-81
2021/03/16 01:57:58;;;;;;;4.83;1.97;;;5.60;48.50;;;;;;5095200;28;39657;-80
2021/03/16 02:00:45;;;;;;;5.40;1.90;;;5.60;48.10;;;;;;5079555;28;40190;-81
2021/03/16 02:03:31;;;;;;;2.80;1.43;;;5.60;47.80;;;;;;5081370;28;38830;-80
2021/03/16 02:06:26;;;;;;;4.57;1.87;;;5.50;47.90;;;;;;5086667;28;37530;-79
2021/03/16 02:09:19;;;;;;;2.20;1.40;;;5.40;48.00;;;;;;5077988;28;41073;-81
2021/03/16 02:12:12;;;;;;;3.20;1.60;;;5.40;47.90;;;;;;5078565;28;40700;-81
2021/03/16 02:15:02;;;;;;;4.27;1.57;;;5.30;48.00;;;;;;5090378;28;37970;-81
2021/03/16 02:17:53;;;;;;;2.20;1.60;;;5.40;48.10;;;;;;5081469;28;38308;-80
2021/03/16 02:21:05;;;;;;;3.50;1.97;;;5.30;48.30;;;;;;5099901;28;40086;-80
2021/03/16 02:24:41;;;;;;;3.93;1.80;;;5.30;48.40;;;;;;5088338;28;39940;-80
2021/03/16 02:27:29;;;;;;;2.00;1.83;;;5.30;48.90;;;;;;5086544;28;37998;-81
2021/03/16 02:30:17;;;;;;;3.10;1.63;;;5.30;48.90;;;;;;5083596;28;37720;-81
2021/03/16 02:33:05;;;;;;;10.30;2.17;;;5.30;49.20;;;;;;5075274;28;40142;-81
2021/03/16 02:35:53;;;;;;;3.53;1.73;;;5.20;49.20;;;;;;5086527;28;39774;-81
2021/03/16 02:38:44;;;;;;;4.43;1.80;;;5.20;49.60;;;;;;5096611;28;38714;-81
2021/03/16 02:41:31;;;;;;;3.30;1.97;;;5.20;50.00;;;;;;5093113;28;37699;-81
2021/03/16 02:44:17;;;;;;;4.50;2.00;;;5.20;50.00;;;;;;5087724;28;39958;-81
2021/03/16 02:47:05;;;;;;;5.27;2.00;;;5.20;50.50;;;;;;5094870;28;39440;-82
2021/03/16 02:49:52;;;;;;;5.13;1.97;;;5.10;50.60;;;;;;5089356;28;38512;-82
2021/03/16 02:52:39;;;;;;;6.90;2.00;;;5.10;50.70;;;;;;5086498;28;38248;-81
2021/03/16 02:55:25;;;;;;;2.60;1.70;;;5.10;50.90;;;;;;5088414;28;39981;-81
2021/03/16 02:58:12;;;;;;;2.10;1.50;;;5.10;50.70;;;;;;5096671;28;39665;-81
2021/03/16 03:00:59;;;;;;;3.33;2.13;;;5.00;51.00;;;;;;5089901;28;38037;-82
2021/03/16 03:03:47;;;;;;;3.50;1.90;;;4.90;51.00;;;;;;5085395;28;38368;-81
2021/03/16 03:06:34;;;;;;;3.90;1.60;;;4.90;51.10;;;;;;5089494;28;40128;-82
2021/03/16 03:09:19;;;;;;;4.67;2.00;;;4.90;51.30;;;;;;5101486;28;39515;-81
2021/03/16 03:12:06;;;;;;;4.97;1.80;;;4.90;51.40;;;;;;5085022;28;38463;-81
2021/03/16 03:14:52;;;;;;;5.70;2.40;;;4.90;51.10;;;;;;5088537;28;37616;-79
2021/03/16 03:17:38;;;;;;;4.17;1.47;;;4.90;51.30;;;;;;5086489;28;40145;-78
2021/03/16 03:20:25;;;;;;;3.80;2.23;;;4.90;51.20;;;;;;5088679;28;39785;-79
2021/03/16 03:23:17;;;;;;;5.37;1.90;;;4.90;51.20;;;;;;5086292;28;38555;-80
2021/03/16 03:26:09;;;;;;;3.70;2.10;;;4.80;51.50;;;;;;5095955;28;20614;-80
2021/03/16 03:28:57;;;;;;;4.90;2.17;;;4.80;51.70;;;;;;5089544;28;40301;-80
2021/03/16 03:31:45;;;;;;;1.93;1.73;;;4.80;51.70;;;;;;5088514;28;40280;-80
2021/03/16 03:34:33;;;;;;;5.30;2.20;;;4.80;51.80;;;;;;5089667;28;38322;-79
2021/03/16 03:37:26;;;;;;;2.57;2.03;;;4.80;51.80;;;;;;5084012;28;37469;-79
2021/03/16 03:40:13;;;;;;;5.87;2.23;;;4.80;51.80;;;;;;5099179;28;40817;-79
2021/03/16 03:43:03;;;;;;;6.83;2.20;;;4.80;51.80;;;;;;5084896;28;40167;-79
2021/03/16 03:45:52;;;;;;;2.00;1.63;;;4.80;51.80;;;;;;5090095;28;38076;-79
2021/03/16 03:48:38;;;;;;;3.87;2.07;;;4.80;51.60;;;;;;5087935;28;37763;-80
2021/03/16 03:51:25;;;;;;;3.63;1.70;;;4.90;51.80;;;;;;5089741;28;40822;-79
2021/03/16 03:54:12;;;;;;;4.60;2.10;;;4.80;51.80;;;;;;5090665;28;40203;-79
2021/03/16 03:56:58;;;;;;;3.77;2.30;;;4.90;51.90;;;;;;5083452;28;38046;-80
2021/03/16 03:59:46;;;;;;;6.13;2.53;;;4.80;52.20;;;;;;5088135;28;37457;-79
2021/03/16 04:02:31;;;;;;;8.70;2.33;;;4.90;52.70;;;;;;5088281;28;40955;-79
2021/03/16 04:05:17;;;;;;;3.70;2.00;;;4.90;53.30;;;;;;5079903;28;39401;-80
2021/03/16 04:08:04;;;;;;;4.00;2.10;;;4.80;53.70;;;;;;5090894;28;36613;-79
2021/03/16 04:10:51;;;;;;;2.90;1.93;;;4.70;54.10;;;;;;5090508;28;37534;-79
2021/03/16 04:13:38;;;;;;;4.13;1.80;;;4.60;54.70;;;;;;5095027;28;40794;-80
2021/03/16 04:16:25;;;;;;;5.13;2.43;;;4.50;54.90;;;;;;5092816;28;38304;-80
2021/03/16 04:19:11;;;;;;;5.23;2.17;;;4.50;55.10;;;;;;5087778;28;38228;-79
2021/03/16 04:21:57;;;;;;;2.93;1.80;;;4.50;55.00;;;;;;5089346;28;37971;-79
2021/03/16 04:24:42;;;;;;;4.10;2.00;;;4.40;55.00;;;;;;5092071;28;40830;-79
2021/03/16 04:27:28;;;;;;;4.90;2.57;;;4.40;54.70;;;;;;5089605;28;40277;-79
2021/03/16 04:30:15;;;;;;;6.00;2.30;;;4.40;54.80;;;;;;5095056;28;38657;-80
2021/03/16 04:33:01;;;;;;;3.37;2.20;;;4.40;55.00;;;;;;5085099;28;37622;-79
2021/03/16 04:35:47;;;;;;;3.30;2.03;;;4.40;55.30;;;;;;5090074;28;40207;-79
2021/03/16 04:38:32;;;;;;;2.70;1.80;;;4.40;55.10;;;;;;5092535;28;40473;-79
2021/03/16 04:41:18;;;;;;;3.70;2.10;;;4.50;55.10;;;;;;5090695;28;38803;-80
2021/03/16 04:44:05;;;;;;;4.03;2.43;;;4.50;55.00;;;;;;5099450;28;37772;-80
2021/03/16 04:46:51;;;;;;;5.40;2.63;;;4.60;54.70;;;;;;5092845;28;41508;-80
2021/03/16 04:49:36;;;;;;;5.10;1.80;;;4.50;54.00;;;;;;5091170;28;39304;-79
2021/03/16 04:52:24;;;;;;;2.90;2.17;;;4.50;54.30;;;;;;5093031;28;38102;-79
2021/03/16 04:55:11;;;;;;;3.10;1.70;;;4.50;54.00;;;;;;5089566;28;38492;-79
2021/03/16 04:57:58;;;;;;;4.10;1.83;;;4.60;53.90;;;;;;5097846;28;41299;-79
2021/03/16 05:00:45;;;;;;;3.30;2.17;;;4.60;53.90;;;;;;5084403;28;40200;-80
2021/03/16 05:03:30;;;;;;;5.77;1.73;;;4.60;53.80;;;;;;5088659;28;38463;-80
2021/03/16 05:06:15;;;;;;;4.07;1.80;;;4.60;53.80;;;;;;5092009;28;38216;-80
2021/03/16 05:09:01;;;;;;;3.57;1.70;;;4.60;53.90;;;;;;5087718;28;40339;-81
2021/03/16 05:11:47;;;;;;;6.60;1.47;;;4.50;54.00;;;;;;5102344;28;39525;-81
2021/03/16 05:14:33;;;;;;;6.00;1.60;;;4.60;54.20;;;;;;5098392;28;38480;-80
2021/03/16 05:17:23;;;;;;;4.23;1.60;;;4.60;54.50;;;;;;5098659;28;37676;-80
2021/03/16 05:20:11;;;;;;;7.40;1.87;;;4.50;54.70;;;;;;5090569;28;40178;-80
2021/03/16 05:22:56;;;;;;;3.17;1.70;;;4.50;55.20;;;;;;5092810;28;39751;-80
2021/03/16 05:25:42;;;;;;;4.07;1.70;;;4.50;54.70;;;;;;5089891;28;37989;-81
2021/03/16 05:28:27;;;;;;;5.77;1.80;;;4.50;54.60;;;;;;5092734;28;38333;-81
2021/03/16 05:31:13;;;;;;;2.27;1.47;;;4.40;54.30;;;;;;5090596;28;41134;-82
2021/03/16 05:34:03;;;;;;;10.70;1.67;;;4.50;54.10;;;;;;5091036;28;39296;-79
2021/03/16 05:36:49;;;;;;;2.77;1.67;;;4.50;54.30;;;;;;5089439;28;37902;-81
2021/03/16 05:39:35;;;;;;;2.40;1.50;;;4.50;54.20;;;;;;5097608;28;37919;-79
2021/03/16 05:42:21;;;;;;;6.20;1.90;;;4.50;54.10;;;;;;5091143;28;40469;-79
2021/03/16 05:45:08;;;;;;;2.43;1.37;;;4.60;54.10;;;;;;5091760;28;39408;-79
2021/03/16 05:47:55;;;;;;;4.27;1.70;;;4.60;53.90;;;;;;5093991;28;38760;-79
2021/03/16 05:50:42;;;;;;;2.50;1.67;;;4.60;53.60;;;;;;5081168;28;38354;-79
2021/03/16 05:53:27;;;;;;;4.73;1.80;;;4.60;53.60;;;;;;5092976;28;40525;-79
2021/03/16 05:56:13;;;;;;;3.93;1.60;;;4.70;53.70;;;;;;5084997;28;40106;-80
2021/03/16 05:58:59;;;;;;;5.13;1.83;;;4.70;53.20;;;;;;5090657;28;37876;-80
2021/03/16 06:01:45;;;;;;;7.10;1.80;;;4.70;53.00;;;;;;5091252;28;37520;-80
2021/03/16 06:04:31;;;;;;;6.60;1.67;;;4.70;52.90;;;;;;5097580;28;41490;-80
2021/03/16 06:07:18;;;;;;;4.27;1.50;;;4.70;53.70;;;;;;5091457;28;40098;-81
2021/03/16 06:10:08;;;;;;;6.37;1.80;;;4.70;54.20;;;;;;5093262;28;37710;-81
2021/03/16 06:12:53;;;;;;;3.97;1.83;;;4.60;54.90;;;;;;5093788;28;37755;-81
2021/03/16 06:15:40;;;;;;;5.90;1.97;;;4.50;55.20;;;;;;5090098;28;40806;-81
2021/03/16 06:18:27;;;;;;;5.23;1.63;;;4.40;55.60;;;;;;5096057;28;39364;-81
2021/03/16 06:21:18;;;;;;;4.50;1.83;;;4.30;55.70;;;;;;5089520;28;38079;-80
2021/03/16 06:24:05;;;;;;;6.50;2.30;;;4.30;56.40;;;;;;5092015;28;38332;-81
2021/03/16 06:26:51;;;;;;;8.27;2.53;;;4.40;56.60;;;;;;5086360;28;40803;-80
2021/03/16 06:29:43;;;;;;;4.47;1.70;;;4.40;56.50;;;;;;5091035;28;40203;-80
2021/03/16 06:32:36;;;;;;;5.40;1.90;;;4.50;56.20;;;;;;5092571;28;37232;-79
2021/03/16 06:35:22;;;;;;;11.00;2.67;;;4.60;56.20;;;;;;5089503;28;37505;-79
2021/03/16 06:38:09;;;;;;;5.03;1.77;;;4.80;55.40;;;;;;5094722;28;40813;-80
2021/03/16 06:41:06;;;;;;;7.70;2.30;;;4.80;55.10;;;;;;5088808;28;39929;-81
2021/03/16 06:43:54;;;;;;;7.20;2.70;;;5.00;54.80;;;;;;5091391;28;38769;-81
2021/03/16 06:46:40;;;;;;;4.43;1.67;;;5.00;53.70;;;;;;5094390;28;38322;-80
2021/03/16 06:49:32;;;;;;;5.13;1.83;;;5.10;53.40;;;;;;5090083;28;40380;-80
2021/03/16 06:52:19;;;;;;;5.20;2.20;;;5.10;53.00;;;;;;5088593;28;39397;-80
2021/03/16 06:55:11;;;;;;;4.50;2.20;;;5.10;52.40;;;;;;5088684;28;38418;-80
2021/03/16 06:58:05;;;;;;;3.37;1.70;;;5.20;52.10;;;;;;5093926;28;38612;-82
2021/03/16 07:01:02;;;;;;;7.93;2.17;;;5.20;52.40;;;;;;5081625;28;40574;-81
2021/03/16 07:03:50;;;;;;;5.83;2.00;;;5.20;52.50;;;;;;5092007;28;40414;-81
2021/03/16 07:06:36;;;;;;;3.60;1.90;;;5.20;52.30;;;;;;5085800;28;38108;-80
2021/03/16 07:09:22;;;;;;;6.03;2.17;;;5.30;52.00;;;;;;5090637;28;37800;-81
2021/03/16 07:12:09;;;;;;;5.90;2.17;;;5.30;51.50;;;;;;5090568;28;41170;-81
2021/03/16 07:14:57;;;;;;;5.57;2.17;;;5.40;51.30;;;;;;5080274;28;40072;-81
2021/03/16 07:17:43;;;;;;;5.10;2.00;;;5.50;51.00;;;;;;5090892;28;38813;-80
2021/03/16 07:20:34;;;;;;;7.90;2.60;;;5.50;51.00;;;;;;5089543;28;38713;-81
2021/03/16 07:23:23;;;;;;;8.53;2.50;;;5.50;50.70;;;;;;5084755;28;40793;-82
2021/03/16 07:26:09;;;;;;;6.87;2.07;;;5.60;50.70;;;;;;5089317;28;39726;-81
2021/03/16 07:28:56;;;;;;;8.83;2.37;;;5.70;50.70;;;;;;5088124;28;39175;-81
2021/03/16 07:31:43;;;;;;;4.43;2.87;;;5.80;50.70;;;;;;5081675;28;37460;-81
2021/03/16 07:34:30;;;;;;;5.60;1.80;;;5.90;50.40;;;;;;5088250;28;41021;-81
2021/03/16 07:37:17;;;;;;;3.23;2.10;;;6.00;50.20;;;;;;5087626;28;39500;-82
2021/03/16 07:40:07;;;;;;;4.43;1.87;;;6.00;50.30;;;;;;5090270;28;38155;-82
2021/03/16 07:42:53;;;;;;;8.70;2.20;;;6.10;49.80;;;;;;5089445;28;37850;-83
2021/03/16 07:45:40;;;;;;;2.80;1.87;;;6.10;49.70;;;;;;5086760;28;41076;-81
2021/03/16 07:48:30;;;;;;;10.73;2.20;;;6.00;50.10;;;;;;5086215;28;39740;-82
2021/03/16 07:51:17;;;;;;;4.23;1.83;;;5.90;50.90;;;;;;5085461;28;38104;-82
2021/03/16 07:54:04;;;;;;;4.77;2.10;;;5.60;53.20;;;;;;5089305;28;37415;-82
2021/03/16 07:56:58;;;;;;;6.47;2.53;;;5.40;54.70;;;;;;5087150;28;41421;-82
2021/03/16 07:59:44;;;;;;;7.73;2.23;;;5.10;56.20;;;;;;5089038;28;39830;-82
2021/03/16 08:02:33;;;;;;;4.43;2.50;;;4.90;58.00;;;;;;5092892;28;37972;-82
2021/03/16 08:05:24;;;;;;;6.63;2.50;;;4.90;59.50;;;;;;5091196;28;37893;-82
2021/03/16 08:08:14;;;;;;;6.30;2.70;;;4.80;60.10;;;;;;5094273;28;41093;-81
2021/03/16 08:11:07;;;;;;;3.10;2.37;;;4.90;60.80;;;;;;5094944;28;39625;-81
2021/03/16 08:14:04;;;;;;;6.40;3.17;;;4.90;61.50;;;;;;5082186;28;39021;-81
2021/03/16 08:16:52;;;;;;;7.20;3.17;;;4.90;61.20;;;;;;5086451;28;37549;-82
2021/03/16 08:19:41;;;;;;;5.50;2.60;;;4.90;61.40;;;;;;5093667;28;40921;-82
2021/03/16 08:23:03;;;;;;;5.03;3.40;;;4.90;61.80;;;;;;5093809;28;39413;-82
2021/03/16 08:25:53;;;;;;;5.97;2.93;;;5.10;63.80;;;;;;5093234;28;38374;-82
2021/03/16 08:28:51;;;;;;;9.90;5.20;;;5.40;64.40;;;;;;5089186;28;37571;-83
2021/03/16 08:31:37;;;;;;;7.97;2.93;;;5.80;65.30;;;;;;5085395;28;39841;-82
2021/03/16 08:34:24;;;;;;;5.40;2.77;;;6.30;65.80;;;;;;5092120;28;39537;-83
2021/03/16 08:37:20;;;;;;;10.27;3.10;;;6.90;64.20;;;;;;5095058;28;38880;-82
2021/03/16 08:40:09;;;;;;;8.03;3.60;;;7.20;61.20;;;;;;5095846;28;37919;-82
2021/03/16 08:42:55;;;;;;;5.87;2.87;;;7.60;61.70;;;;;;5095977;28;40407;-83
2021/03/16 08:45:50;;;;;;;7.10;2.30;;;8.50;62.50;;;;;;5094829;28;39280;-82
2021/03/16 08:48:41;;;;;;;8.13;2.07;;;9.70;58.10;;;;;;5095822;28;38146;-82
2021/03/16 08:51:34;;;;;;;4.60;2.00;;;10.20;51.30;;;;;;5096412;28;38486;-81
2021/03/16 08:54:27;;;;;;;8.03;2.43;;;10.20;47.90;;;;;;5093527;28;40463;-82
2021/03/16 08:57:18;;;;;;;15.93;3.73;;;9.90;48.40;;;;;;5096238;28;39423;-82
2021/03/16 09:00:05;;;;;;;12.37;3.30;;;9.50;48.30;;;;;;5095396;28;39150;-81
2021/03/16 09:02:56;;;;;;;8.40;3.10;;;9.30;48.40;;;;;;5092194;28;37916;-81
2021/03/16 09:05:45;;;;;;;3.30;2.27;;;9.10;48.50;;;;;;5096689;28;39866;-84
2021/03/16 09:08:31;;;;;;;13.23;3.20;;;8.90;49.10;;;;;;5097003;28;40361;-84
2021/03/16 09:11:30;;;;;;;6.57;2.30;;;8.60;49.70;;;;;;5095768;28;39029;-84
2021/03/16 09:14:18;;;;;;;4.73;2.00;;;8.30;50.20;;;;;;5079200;28;38476;-83
2021/03/16 09:17:06;;;;;;;6.43;2.47;;;8.20;50.70;;;;;;5096120;28;40393;-81
2021/03/16 09:19:51;;;;;;;6.00;2.70;;;7.90;50.70;;;;;;5095307;28;39785;-82
2021/03/16 09:22:38;;;;;;;4.80;3.07;;;7.80;51.20;;;;;;5094605;28;39315;-82
2021/03/16 09:25:26;;;;;;;5.40;2.67;;;7.70;51.50;;;;;;5096526;28;37871;-82
2021/03/16 09:28:14;;;;;;;6.77;2.77;;;7.60;51.70;;;;;;5100987;28;40469;-84
2021/03/16 09:31:00;;;;;;;5.17;3.10;;;7.70;52.40;;;;;;5101516;28;39781;-83
2021/03/16 09:33:46;;;;;;;8.70;3.33;;;8.00;53.00;;;;;;5095891;28;38293;-84
2021/03/16 09:36:32;;;;;;;7.30;3.30;;;8.30;52.20;;;;;;5094467;28;37915;-84
2021/03/16 09:39:23;;;;;;;6.87;3.70;;;8.50;51.50;;;;;;5098948;28;40134;-83
2021/03/16 09:42:34;;;;;;;8.30;3.07;;;8.50;50.30;;;;;;5097590;28;38741;-81
2021/03/16 09:45:03;;;;;;;5.43;2.90;;;8.60;50.00;;;;;;5106647;28;37700;-81
2021/03/16 09:47:32;;;;;;;8.67;2.50;;;8.40;49.60;;;;;;5090183;28;37707;-82
2021/03/16 09:50:10;;;;;;;7.80;2.73;;;8.40;49.90;;;;;;5097122;28;39893;-82
2021/03/16 09:52:39;;;;;;;4.20;2.67;;;8.50;49.70;;;;;;5106731;28;38056;-82
2021/03/16 09:55:10;;;;;;;6.43;2.60;;;8.50;48.80;;;;;;5095620;28;36516;-82
2021/03/16 09:57:38;;;;;;;6.10;3.33;;;8.20;48.00;;;;;;5087870;28;38096;-82
2021/03/16 10:00:20;;;;;;;4.27;2.63;;;8.10;48.40;;;;;;5110033;27;38765;-83
2021/03/16 10:03:02;;;;;;;6.53;2.30;;;8.00;48.60;;;;;;5093925;28;38216;-82
2021/03/16 10:05:30;;;;;;;3.63;2.47;;;8.20;48.50;;;;;;5089916;28;37186;-83
2021/03/16 10:07:57;;;;;;;4.60;2.40;;;8.60;48.40;;;;;;5091582;28;35971;-81
2021/03/16 10:10:27;;;;;;;9.67;2.97;;;9.10;46.70;;;;;;5096843;28;40607;-80
2021/03/16 10:12:57;;;;;;;4.37;2.60;;;9.20;45.80;;;;;;5094491;28;39917;-82
2021/03/16 10:15:27;;;;;;;3.23;2.60;;;8.80;45.80;;;;;;5095288;28;37631;-80
2021/03/16 10:18:00;;;;;;;3.33;2.37;;;8.30;47.70;;;;;;5093983;28;36927;-80
2021/03/16 10:20:30;;;;;;;4.83;2.30;;;8.20;48.60;;;;;;5093098;28;40605;-78
2021/03/16 10:23:01;;;;;;;5.80;2.40;;;8.40;48.70;;;;;;5092748;28;39008;-79
2021/03/16 10:25:30;;;;;;;5.67;2.40;;;8.60;48.10;;;;;;5090883;28;37807;-79
2021/03/16 10:28:01;;;;;;;4.53;2.40;;;9.00;47.20;;;;;;5094301;28;36565;-80
2021/03/16 10:30:36;;;;;;;4.90;2.13;;;9.30;46.50;;;;;;5092102;28;40786;-79
2021/03/16 10:33:06;;;;;;;4.00;2.30;;;9.30;46.20;;;;;;5092166;28;39057;-79
2021/03/16 10:35:36;;;;;;;4.73;2.60;;;9.00;46.50;;;;;;5089662;28;37907;-79
2021/03/16 10:38:03;;;;;;;6.10;2.23;;;9.00;47.30;;;;;;5105774;28;35970;-79
2021/03/16 10:40:32;;;;;;;4.83;2.10;;;9.10;47.20;;;;;;5108925;28;39627;-79
2021/03/16 10:42:59;;;;;;;3.37;2.30;;;9.20;46.60;;;;;;5088012;28;37879;-79
2021/03/16 10:45:28;;;;;;;3.80;2.60;;;9.30;46.20;;;;;;5099712;28;37203;-81
2021/03/16 10:47:55;;;;;;;9.23;2.37;;;9.40;46.40;;;;;;5093232;28;37467;-80
2021/03/16 10:50:23;;;;;;;3.50;2.57;;;9.20;46.30;;;;;;5093062;28;40674;-81
2021/03/16 10:52:52;;;;;;;7.43;2.27;;;9.30;46.60;;;;;;5082483;28;39069;-81
2021/03/16 10:55:19;;;;;;;5.27;2.90;;;9.40;46.40;;;;;;5088470;28;37210;-81
2021/03/16 10:57:46;;;;;;;4.93;2.33;;;9.90;44.70;;;;;;5090639;28;36998;-81
2021/03/16 11:00:14;;;;;;;8.03;2.50;;;10.30;42.90;;;;;;5087679;28;40593;-81
2021/03/16 11:02:41;;;;;;;4.30;2.47;;;11.00;41.70;;;;;;5091895;28;39681;-80
2021/03/16 11:05:09;;;;;;;5.10;3.33;;;11.10;39.70;;;;;;5092550;28;37672;-81
2021/03/16 11:07:39;;;;;;;7.60;3.13;;;11.20;40.10;;;;;;5092280;28;37068;-81
2021/03/16 11:10:07;;;;;;;4.47;2.63;;;11.30;39.20;;;;;;5091045;28;39819;-81
2021/03/16 11:12:34;;;;;;;5.23;2.70;;;11.60;39.90;;;;;;5094327;28;39298;-81
2021/03/16 11:15:02;;;;;;;7.17;3.60;;;12.10;38.90;;;;;;5090785;28;38178;-81
2021/03/16 11:17:30;;;;;;;6.03;2.83;;;12.50;38.30;;;;;;5089952;28;35833;-78
2021/03/16 11:19:59;;;;;;;4.83;2.33;;;12.40;36.60;;;;;;5091009;28;39347;-78
2021/03/16 11:22:29;;;;;;;6.30;2.90;;;12.20;36.40;;;;;;5088422;28;39519;-78
2021/03/16 11:25:00;;;;;;;7.03;2.83;;;12.10;36.90;;;;;;5095683;28;36355;-77
2021/03/16 11:27:27;;;;;;;5.00;2.50;;;12.00;37.30;;;;;;5105378;27;35717;-77
2021/03/16 11:29:56;;;;;;;5.80;2.70;;;12.10;37.60;;;;;;5086053;28;39511;-77
2021/03/16 11:32:23;;;;;;;4.17;2.57;;;12.30;37.10;;;;;;5084430;28;39970;-78
2021/03/16 11:35:10;;;;;;;4.23;2.10;;;12.40;35.40;;;;;;5083427;28;38725;-79
2021/03/16 11:37:55;;;;;;;4.80;2.80;;;12.40;35.00;;;;;;5092126;28;38755;-79
2021/03/16 11:40:42;;;;;;;6.33;2.70;;;12.30;34.80;;;;;;5092137;28;40390;-79
2021/03/16 11:43:29;;;;;;;4.43;2.63;;;12.20;36.00;;;;;;5089976;28;39772;-79
2021/03/16 11:46:14;;;;;;;4.70;2.57;;;12.20;34.70;;;;;;5084079;28;38074;-80
2021/03/16 11:49:00;;;;;;;3.60;2.63;;;12.10;34.70;;;;;;5087148;28;38415;-80
2021/03/16 11:51:45;;;;;;;6.13;3.07;;;11.90;34.10;;;;;;5090961;28;40375;-80
2021/03/16 11:54:31;;;;;;;5.17;3.10;;;11.90;34.50;;;;;;5088732;28;40009;-80
2021/03/16 11:57:17;;;;;;;9.47;3.10;;;11.80;34.50;;;;;;5091191;28;38052;-80
2021/03/16 12:00:04;;;;;;;7.50;2.80;;;11.90;34.20;;;;;;5087419;28;38086;-80
2021/03/16 12:02:49;;;;;;;8.47;2.80;;;11.90;34.60;;;;;;5094365;28;40402;-79
2021/03/16 12:05:36;;;;;;;6.40;2.43;;;12.20;34.10;;;;;;5095457;28;40520;-80
2021/03/16 12:08:22;;;;;;;4.13;2.70;;;12.30;33.20;;;;;;5091787;28;38106;-81
2021/03/16 12:11:08;;;;;;;6.60;2.57;;;12.20;33.10;;;;;;5087243;28;38671;-80
2021/03/16 12:13:55;;;;;;;4.50;2.37;;;12.10;33.00;;;;;;5109155;27;40418;-81
2021/03/16 12:16:40;;;;;;;3.97;2.57;;;12.00;33.60;;;;;;5089853;28;39373;-81
2021/03/16 12:19:26;;;;;;;5.77;2.70;;;11.70;33.40;;;;;;5093121;28;38595;-80
2021/03/16 12:22:12;;;;;;;6.77;2.87;;;11.40;35.20;;;;;;5088070;28;38709;-80
2021/03/16 12:24:57;;;;;;;5.93;3.10;;;11.00;36.40;;;;;;5090243;28;39830;-80
2021/03/16 12:27:44;;;;;;;4.50;2.50;;;10.40;38.30;;;;;;5092129;28;39641;-79
2021/03/16 12:30:32;;;;;;;8.00;2.63;;;9.70;42.00;;;;;;5084951;28;38533;-79
2021/03/16 12:33:19;;;;;;;3.10;2.13;;;9.00;46.40;;;;;;5085371;28;37849;-80
2021/03/16 12:36:06;;;;;;;3.93;2.73;;;8.60;48.90;;;;;;5086375;28;40190;-79
2021/03/16 12:38:52;;;;;;;6.20;3.20;;;8.40;51.10;;;;;;5082305;28;39428;-79
2021/03/16 12:41:38;;;;;;;4.33;2.73;;;8.20;49.70;;;;;;5087177;28;38776;-80
2021/03/16 12:44:23;;;;;;;4.17;2.50;;;8.20;50.00;;;;;;5092036;28;37514;-81
2021/03/16 12:47:10;;;;;;;6.73;3.93;;;8.30;50.50;;;;;;5084960;28;41033;-81
2021/03/16 12:49:55;;;;;;;5.40;2.50;;;8.50;50.70;;;;;;5094925;28;39685;-82
2021/03/16 12:52:43;;;;;;;5.60;2.20;;;8.80;51.70;;;;;;5091338;28;38201;-81
2021/03/16 12:55:28;;;;;;;4.90;3.00;;;9.10;47.50;;;;;;5083939;28;38169;-80
2021/03/16 12:58:14;;;;;;;3.97;2.37;;;9.50;45.90;;;;;;5091943;28;41006;-80
2021/03/16 13:00:59;;;;;;;3.27;2.37;;;10.00;44.70;;;;;;5080682;28;40590;-81
2021/03/16 13:03:48;;;;;;;4.03;2.37;;;10.60;42.70;;;;;;5090000;28;38912;-80
2021/03/16 13:06:34;;;;;;;3.70;2.33;;;11.00;41.10;;;;;;5087913;28;37925;-82
2021/03/16 13:09:22;;;;;;;5.07;2.70;;;11.30;40.00;;;;;;5093854;28;41141;-82
2021/03/16 13:12:08;;;;;;;4.90;2.40;;;11.50;39.10;;;;;;5095561;28;39419;-82
2021/03/16 13:14:54;;;;;;;3.83;2.30;;;11.50;37.60;;;;;;5090200;28;39077;-81
2021/03/16 13:17:40;;;;;;;9.53;3.70;;;11.20;36.80;;;;;;5093494;28;37954;-83
2021/03/16 13:20:26;;;;;;;2.93;2.10;;;11.20;36.80;;;;;;5091320;28;40073;-82
2021/03/16 13:23:12;;;;;;;8.70;2.70;;;11.50;36.80;;;;;;5086121;28;40699;-83
2021/03/16 13:25:57;;;;;;;7.60;2.30;;;11.80;36.60;;;;;;5091255;28;37964;-82
2021/03/16 13:28:43;;;;;;;3.87;2.13;;;11.90;34.70;;;;;;5087149;28;38547;-82
2021/03/16 13:31:29;;;;;;;5.20;2.00;;;11.80;34.40;;;;;;5086887;28;40671;-82
2021/03/16 13:34:15;;;;;;;7.03;2.30;;;11.40;34.20;;;;;;5091565;28;39970;-82
2021/03/16 13:37:02;;;;;;;4.80;1.97;;;11.00;34.50;;;;;;5090402;28;38991;-81
2021/03/16 13:39:48;;;;;;;5.47;2.17;;;10.60;33.60;;;;;;5086711;28;38339;-83
2021/03/16 13:42:36;;;;;;;2.93;1.60;;;10.40;33.80;;;;;;5090565;28;40472;-82
2021/03/16 13:45:22;;;;;;;6.17;2.57;;;10.20;32.60;;;;;;5089292;28;39466;-82
2021/03/16 13:48:08;;;;;;;5.07;2.10;;;10.00;34.30;;;;;;5091237;28;38285;-82
2021/03/16 13:50:53;;;;;;;4.53;4.10;;;10.00;33.00;;;;;;5091588;28;37867;-81
2021/03/16 13:53:40;;;;;;;9.03;2.83;;;9.90;33.80;;;;;;5091980;28;41113;-83
2021/03/16 13:56:25;;;;;;;8.77;2.70;;;10.00;32.50;;;;;;5096417;28;39358;-82
2021/03/16 13:59:11;;;;;;;3.50;2.20;;;10.00;31.70;;;;;;5088700;28;38997;-81
2021/03/16 14:01:57;;;;;;;4.13;2.10;;;9.90;32.00;;;;;;5089025;28;37699;-81
2021/03/16 14:04:42;;;;;;;3.53;2.10;;;10.00;32.10;;;;;;5083804;28;40362;-79
2021/03/16 14:07:28;;;;;;;4.53;1.97;;;10.10;31.90;;;;;;5088705;28;40354;-79
2021/03/16 14:10:15;;;;;;;4.70;1.90;;;10.20;31.30;;;;;;5085067;28;38336;-79
2021/03/16 14:13:01;;;;;;;5.10;1.73;;;10.30;30.70;;;;;;5086299;28;37766;-79
2021/03/16 14:15:47;;;;;;;3.47;2.23;;;10.50;31.60;;;;;;5091146;28;40052;-81
2021/03/16 14:18:33;;;;;;;3.43;2.23;;;10.70;31.50;;;;;;5089783;28;39918;-81